Terminal Aerodrome Forecast
Issued by NWS Quad Cities IA IL

Home | Current Version | Previous Version | Text Only | Print | Product List | Glossary On
Versions: 1 2 3 4 5 6 7 8 9 10 11 12 13 14 15 16 17 18 19 20 21 22
000
FTUS43 KDVN 191500 AAB
TAFMLI
TAF AMD
KMLI 191541Z 1916/2012 24011KT P6SM SCT012 BKN090
      TEMPO 1916/1917 BKN012
     FM191700 27012KT P6SM SCT010 BKN025
     FM200100 30003KT P6SM SKC
     FM200900 VRB02KT 5SM BR SKC=

USA.gov is the U.S. government's official web portal to all federal, state and local government web resources and services.